x

9075099 - De Tour Village, Mi (dtlm4) Weather Station

3:30am - Wed 28th Jan 2015 All times are CST. -6 hours from GMT.

  • Wind
    3mph, 6mph gusts
  • Air Temp 7°f
  • Sea Pressure 1024.3mb
  • 9075099 - De Tour Village, Mi
  • 9075099 - De Tour Village, Mi

More Historic Weather Station data

Upgrade to MSW Pro to gain access to the past 30 days of data for over 8000 Wavebouys and Weather Stations around the globe.

Join Pro

Comparision Forecast

View Surf forecast
   
Wed 01/28 3:30am 3 6 mph 1024.3mb 7f
3:24am 5 7 mph 1024.4mb 6f
3:18am 5 6 mph 1024.3mb 8f
3:12am 5 6 mph 1024.3mb 8f
3:06am 6 7 mph 1024.4mb 9f
3:00am 5 6 mph 1024.5mb 9f
2:54am 3 5 mph 1024.4mb 9f
2:48am 2 5 mph 1024.4mb 9f
2:42am 2 5 mph 1024.3mb 8f
2:36am  -  3 mph 1024.3mb 9f
2:30am  -  2 mph 1024.3mb 8f
2:24am 1 5 mph 1024.3mb 8f
2:18am 2 5 mph 1024.2mb 8f
2:12am 3 5 mph 1024.2mb 7f
2:06am 2
mph
1024.2mb 8f
2:00am 1 2 mph 1024.1mb 8f
1:54am 2 3 mph 1024mb 8f
1:48am 3
mph
1023.9mb 8f
1:42am 1 2 mph 1023.8mb 7f
1:36am  -  5 mph 1023.8mb 6f
1:30am 3 5 mph 1023.8mb 6f
1:24am 3 5 mph 1023.7mb 6f
1:18am 5 6 mph 1023.6mb 6f
1:12am 6 7 mph 1023.5mb 6f
1:06am 7 8 mph 1023.5mb 6f
1:00am 7
mph
1023.3mb 6f
12:54am 6
mph
1023.2mb 5f
12:48am 6
mph
1023.1mb 5f
12:42am 6
mph
1023mb 5f
12:36am 6
mph
1023mb 6f
12:30am 5
mph
1023mb 6f
12:24am 5
mph
1023mb 6f
12:18am 5 6 mph 1023mb 6f
12:12am 5
mph
1023mb 6f
12:06am 5 6 mph 1023mb 6f
12:00am 5 6 mph 1023mb 7f
Tue 01/27 11:54pm 6 7 mph 1023.1mb 6f
11:48pm 7
mph
1023.1mb 5f
11:42pm 6 7 mph 1023.1mb 5f
11:36pm 5 6 mph 1023.2mb 6f
11:30pm 6
mph
1023.3mb 5f
11:24pm 5 6 mph 1023.3mb 7f
11:18pm 5 6 mph 1023.4mb 8f
11:12pm 5 6 mph 1023.4mb 8f
11:06pm 5 6 mph 1023.4mb 9f
11:00pm 5 6 mph 1023.4mb 11f
10:54pm 3 5 mph 1023.5mb 12f
10:48pm 2 3 mph 1023.6mb 12f
10:42pm 2 3 mph 1023.7mb 12f
10:36pm 2 3 mph 1023.7mb 11f
10:30pm 2 3 mph 1023.8mb 10f
10:24pm 2 5 mph 1023.8mb 10f
10:18pm 3
mph
1023.8mb 8f
10:12pm 3
mph
1023.7mb 8f
10:06pm 3 5 mph 1023.6mb 8f
10:00pm 3 5 mph 1023.7mb 10f
9:54pm 3 5 mph 1023.7mb 12f
9:48pm 2 3 mph 1023.9mb 10f
9:42pm 2 3 mph 1023.9mb 9f
9:36pm 2 3 mph 1023.9mb 8f
9:30pm 3
mph
1023.9mb 8f
9:24pm 3
mph
1023.9mb 8f
9:18pm 2
mph
1023.7mb 8f
9:12pm 2
mph
1023.6mb 8f
9:06pm 2 3 mph 1023.7mb 8f
9:00pm 3
mph
1023.6mb 8f
8:54pm 2 3 mph 1023.6mb 8f
8:48pm 2 3 mph 1023.6mb 9f
8:42pm 2
mph
1023.6mb 9f
8:36pm 2
mph
1023.7mb 10f
8:30pm 1 2 mph 1023.6mb 10f
8:24pm 1 2 mph 1023.5mb 10f
8:18pm 1 2 mph 1023.5mb 10f
8:12pm 2 3 mph 1023.6mb 9f
8:06pm 2 3 mph 1023.6mb 9f
8:00pm 2 3 mph 1023.6mb 10f
7:54pm 3
mph
1023.6mb 11f
7:48pm 2
mph
1023.7mb 11f
7:42pm 2
mph
1023.7mb 11f
7:36pm 1 2 mph 1023.7mb 10f
7:30pm 2 3 mph 1023.7mb 9f
7:24pm 3 6 mph 1023.8mb 9f
7:18pm 3 6 mph 1023.8mb 11f
7:12pm 3 6 mph 1023.6mb 14f
7:06pm 3 5 mph 1023.6mb 14f
7:00pm 3 5 mph 1023.5mb 14f
6:54pm 3 5 mph 1023.6mb 14f
6:48pm 2 5 mph 1023.6mb 13f
6:42pm 3 6 mph 1023.6mb 14f
6:36pm 3 5 mph 1023.6mb 14f
6:30pm 3 5 mph 1023.6mb 14f
6:24pm 5 6 mph 1023.6mb 14f
6:18pm 5 6 mph 1023.7mb 13f
6:12pm 5
mph
1023.6mb 15f
6:06pm 5 8 mph 1023.5mb 14f
6:00pm 7 8 mph 1023.6mb 14f
5:54pm 6 7 mph 1023.4mb 13f
5:48pm 6
mph
1023.4mb 14f
5:42pm 6
mph
1023.4mb 14f
5:36pm 3 6 mph 1023.5mb 14f
5:30pm 3 5 mph 1023.6mb 14f
5:24pm 2 3 mph 1023.6mb 14f
5:18pm 2 5 mph 1023.7mb 14f
5:12pm 3 5 mph 1023.7mb 15f
5:06pm 5
mph
1023.7mb 14f
5:00pm 3 5 mph 1023.7mb 14f
4:54pm 3 5 mph 1023.7mb 15f
4:48pm 3 5 mph 1023.7mb 15f
4:42pm 3 5 mph 1023.7mb 15f
4:36pm 3 5 mph 1023.6mb 15f
4:30pm 2 3 mph 1023.6mb 15f
4:24pm 3 5 mph 1023.5mb 16f
4:18pm 3 5 mph 1023.5mb 16f
4:12pm 3 5 mph 1023.5mb 16f
4:06pm 5 6 mph 1023.5mb 16f
4:00pm 5
mph
1023.5mb 16f
3:54pm 3
mph
1023.4mb 17f
3:48pm 3 5 mph 1023.4mb 16f
3:42pm 5
mph
1023.3mb 16f
3:36pm 2
mph
1023.4mb 17f
3:30pm 1 2 mph 1023.3mb 17f
3:24pm 2 3 mph 1023.3mb 17f
3:18pm 2
mph
1023.3mb 17f
3:12pm  -  2 mph 1023.3mb 17f
3:06pm 1 3 mph 1023.2mb 16f
3:00pm 2 5 mph 1023.3mb 16f
2:54pm 3 5 mph 1023.2mb 16f
2:48pm 3 5 mph 1023.1mb 16f
2:42pm 5
mph
1023mb 15f
2:36pm 5 6 mph 1023mb 15f
2:30pm 5 6 mph 1022.9mb 15f
2:24pm 5 6 mph 1023.1mb 14f
2:18pm 6 7 mph 1023mb 14f
2:12pm 7 8 mph 1023.1mb 14f
2:06pm 7 8 mph 1023mb 14f
2:00pm 7 8 mph 1023mb 14f
1:54pm 6 7 mph 1023.1mb 14f
1:48pm 7
mph
1023.1mb 13f
1:42pm 6 7 mph 1023mb 13f
1:36pm 6 7 mph 1023mb 13f
1:30pm 7 8 mph 1023mb 13f
1:24pm 7 8 mph 1022.9mb 13f
1:18pm 6 8 mph 1023mb 13f
1:12pm 7 8 mph 1023mb 13f
1:06pm 8 9 mph 1023mb 12f
1:00pm 8
mph
1023mb 12f
12:54pm 7 8 mph 1023mb 12f
12:48pm 8 9 mph 1023mb 12f
12:42pm 7 9 mph 1023mb 12f
12:36pm 8 9 mph 1023.1mb 12f
12:30pm 7 8 mph 1023mb 11f
12:24pm 7 9 mph 1023.1mb 11f
12:18pm 7 10 mph 1023mb 11f
12:12pm 8 9 mph 1023.1mb 11f
12:06pm 8 10 mph 1023.2mb 11f
12:00pm 7 8 mph 1023.3mb 11f
11:54am 8 9 mph 1023.3mb 11f
11:48am 8 9 mph 1023.3mb 10f
11:42am 8 9 mph 1023.3mb 10f
11:36am 9 10 mph 1023.3mb 10f
11:30am 10 11 mph 1023.3mb 10f
11:24am 9 10 mph 1023.4mb 10f
11:18am 9 10 mph 1023.3mb 10f
11:12am 8 10 mph 1023.4mb 10f
11:06am 9 10 mph 1023.5mb 10f
11:00am 10 11 mph 1023.6mb 9f
10:54am 9 11 mph 1023.7mb 10f
10:48am 10 11 mph 1023.8mb 9f
10:42am 10 11 mph 1023.9mb 9f
10:36am 11 13 mph 1023.8mb 9f
10:30am 11 13 mph 1023.8mb 9f
10:24am 11 13 mph 1023.8mb 9f
10:18am 10 11 mph 1023.8mb 9f
10:12am 10 11 mph 1023.8mb 8f
10:06am 10 11 mph 1023.9mb 8f
10:00am 10 11 mph 1023.9mb 9f
9:54am 9 11 mph 1023.8mb 8f
9:48am 8 10 mph 1023.7mb 8f
9:42am 9 10 mph 1023.7mb 8f
9:36am 9 10 mph 1023.6mb 8f
9:30am 9 10 mph 1023.6mb 8f
9:24am 9 11 mph 1023.5mb 8f
9:18am 9 10 mph 1023.4mb 8f
9:12am 8 10 mph 1023.4mb 8f
9:06am 8 10 mph 1023.3mb 8f
9:00am 7 10 mph 1023.3mb 8f
8:54am 7 9 mph 1023.2mb 8f
8:48am 7 10 mph 1023.2mb 8f
8:42am 7 9 mph 1023.1mb 8f
8:36am 6 9 mph 1023mb 8f
8:30am 7 9 mph 1023mb 8f
8:24am 8 10 mph 1022.9mb 7f
8:18am 8 10 mph 1022.9mb 7f
8:12am 8 10 mph 1022.8mb 7f
8:06am 8 10 mph 1022.7mb 7f
8:00am 7 9 mph 1022.7mb 7f
7:54am 6 8 mph 1022.8mb 7f
7:48am 6 8 mph 1022.8mb 7f
7:42am 6 8 mph 1022.9mb 7f
7:36am 7 9 mph 1022.9mb 7f
7:30am 7 9 mph 1022.9mb 7f
7:24am 7 8 mph 1022.8mb 7f
7:18am 6 8 mph 1022.7mb 7f
7:12am 6 8 mph 1022.6mb 7f
7:06am 7 8 mph 1022.6mb 7f
7:00am 6 8 mph 1022.4mb 7f
6:54am 8 10 mph 1022.4mb 7f
6:48am 9 11 mph 1022.4mb 8f
6:42am 9 10 mph 1022.2mb 8f
6:36am 8 9 mph 1022.2mb 8f
6:30am 9 10 mph 1022.2mb 8f
6:24am 8 10 mph 1022.1mb 8f
6:18am 8 10 mph 1021.9mb 8f
6:12am 8 10 mph 1021.8mb 8f
6:06am 9 11 mph 1021.7mb 8f
6:00am 9 10 mph 1021.6mb 8f
5:54am 9 10 mph 1021.5mb 8f
5:48am 8 10 mph 1021.3mb 8f
5:42am 9 11 mph 1021.2mb 8f
5:36am 10 13 mph 1021.2mb 9f
5:30am 9 13 mph 1021.1mb 9f
5:24am 10 11 mph 1021.1mb 9f
5:18am 10 13 mph 1021mb 9f
5:12am 11 13 mph 1020.9mb 9f
5:06am 10 13 mph 1020.8mb 9f
5:00am 10 13 mph 1020.7mb 9f
4:54am 10 13 mph 1020.6mb 9f
4:48am 10 11 mph 1020.5mb 9f
4:42am 10 11 mph 1020.5mb 9f
4:36am 9 10 mph 1020.3mb 9f
4:30am 10 11 mph 1020.2mb 9f
4:24am 9 11 mph 1020.1mb 9f
4:18am 8 11 mph 1020.1mb 9f
4:12am 9 11 mph 1020mb 9f
4:06am 8 11 mph 1020mb 9f
4:00am 11 14 mph 1020mb 9f
3:54am 10 14 mph 1020mb 10f
3:48am 13 15 mph 1019.9mb 9f
3:42am 11 15 mph 1019.9mb 9f
3:36am 10 14 mph 1019.9mb 10f
3:30am 11 14 mph 1020mb 10f
3:24am 11 15 mph 1019.9mb 9f
3:18am 10 14 mph 1019.9mb 9f
3:12am 13 15 mph 1020mb 10f
3:06am 13 16 mph 1019.9mb 10f
3:00am 14 16 mph 1019.9mb 10f
2:54am 13 16 mph 1019.9mb 10f
2:48am 11 15 mph 1019.8mb 10f
2:42am 13 16 mph 1019.8mb 10f
2:36am 11 14 mph 1019.7mb 10f
2:30am 10 14 mph 1019.6mb 10f
2:24am 10 13 mph 1019.7mb 10f
2:18am 13 15 mph 1019.7mb 10f
2:12am 11 16 mph 1019.8mb 10f
2:06am 11 14 mph 1019.8mb 10f
2:00am 10 15 mph 1019.8mb 10f
1:54am 10 15 mph 1019.7mb 10f
1:48am 11 14 mph 1019.7mb 10f
1:42am 10 14 mph 1019.7mb 10f
1:36am 9 13 mph 1019.7mb 10f
1:30am 10 13 mph 1019.6mb 10f
1:24am 9 13 mph 1019.5mb 10f
1:18am 10 16 mph 1019.6mb 10f
1:12am 11 16 mph 1019.6mb 10f
1:06am 11 15 mph 1019.5mb 10f
1:00am 13 16 mph 1019.6mb 10f
12:54am 14 16 mph 1019.5mb 10f
12:48am 13 15 mph 1019.5mb 10f
12:42am 13 16 mph 1019.5mb 10f
12:36am 13 16 mph 1019.4mb 11f
12:30am 11 15 mph 1019.4mb 11f
12:24am 11 14 mph 1019.4mb 11f
12:18am 11 14 mph 1019.4mb 11f
12:12am 13 15 mph 1019.4mb 11f
12:06am 10 14 mph 1019.4mb 11f
12:00am 8 11 mph 1019.3mb 11f
Mon 01/26 11:54pm 8 13 mph 1019.3mb 11f
11:48pm 10 14 mph 1019.2mb 11f
11:42pm 10 13 mph 1019.2mb 11f
11:36pm 9 13 mph 1019.1mb 11f
11:30pm 7 10 mph 1019mb 11f
11:24pm 7 10 mph 1019mb 11f
11:18pm 7 10 mph 1019mb 11f
11:12pm 7 9 mph 1018.9mb 11f
11:06pm 7 10 mph 1018.8mb 11f
11:00pm 7 11 mph 1018.9mb 11f
10:54pm 10 13 mph 1018.9mb 11f
10:48pm 10 14 mph 1018.8mb 11f
10:42pm 10 14 mph 1018.7mb 11f
10:36pm 13 15 mph 1018.7mb 12f
10:30pm 10 15 mph 1018.5mb 12f
10:24pm 14 16 mph 1018.5mb 12f
10:18pm 11 14 mph 1018.5mb 12f
10:12pm 11 15 mph 1018.4mb 12f
10:06pm 11 16 mph 1018.3mb 12f
10:00pm 11 14 mph 1018.2mb 12f
9:54pm 11 16 mph 1018.1mb 12f
9:48pm 14 16 mph 1018.1mb 12f
9:42pm 14 17 mph 1018.1mb 12f
9:36pm 11 17 mph 1018mb 13f
9:30pm 14 17 mph 1018.1mb 13f
9:24pm 13 17 mph 1018.1mb 13f
9:18pm 14 17 mph 1018.2mb 13f
9:12pm 15 20 mph 1018.1mb 13f
9:06pm 14 18 mph 1018.2mb 13f
9:00pm 14 17 mph 1018.1mb 13f
8:54pm 14 17 mph 1018.1mb 13f
8:48pm 14 18 mph 1018mb 13f
8:42pm 14 20 mph 1018mb 13f
8:36pm 15 18 mph 1018mb 13f
8:30pm 15 20 mph 1017.9mb 13f
8:24pm 15 21 mph 1017.8mb 13f
8:18pm 15 20 mph 1017.7mb 13f
8:12pm 15 18 mph 1017.8mb 13f
8:06pm 13 18 mph 1017.9mb 13f
8:00pm 14 17 mph 1017.9mb 13f
7:54pm 14 16 mph 1017.8mb 13f
7:48pm  -  mph 1017.8mb 13f
7:42pm  -  mph 1017.7mb 13f
7:36pm  -  mph 1017.6mb 13f
7:30pm 13 14 mph 1017.7mb 12f
7:24pm 13 16 mph 1017.7mb 12f
7:18pm 13 15 mph 1017.6mb 12f
7:12pm 13 15 mph 1017.6mb 12f
7:06pm 14 15 mph 1017.5mb 12f
7:00pm 13 16 mph 1017.5mb 12f
6:54pm 14 15 mph 1017.4mb 11f
6:48pm 13 16 mph 1017.3mb 11f
6:42pm 13 16 mph 1017.3mb 11f
6:36pm 13 16 mph 1017.3mb 11f
6:30pm 14 16 mph 1017.1mb 11f
6:24pm 13 16 mph 1017mb 11f
6:18pm 11 15 mph 1017mb 11f
6:12pm 13 15 mph 1017mb 10f
6:06pm 13 14 mph 1016.9mb 10f
6:00pm 11 14 mph 1016.8mb 10f
5:54pm 10 14 mph 1016.7mb 10f
5:48pm 11 14 mph 1016.5mb 10f
5:42pm 13 14 mph 1016.4mb 10f
5:36pm 11 14 mph 1016.4mb 11f
5:30pm 13 14 mph 1016.4mb 11f
5:24pm 13 14 mph 1016.4mb 11f
5:18pm 13 15 mph 1016.3mb 11f
5:12pm 10 13 mph 1016.3mb 11f
5:06pm 11 14 mph 1016.4mb 11f
5:00pm 11 13 mph 1016.4mb 12f
4:54pm 10 14 mph 1016.4mb 12f
4:48pm 10 13 mph 1016.3mb 12f
4:42pm 10 13 mph 1016.3mb 12f
4:36pm 10 13 mph 1016.2mb 12f
4:30pm 10 13 mph 1016.1mb 13f
4:24pm 11 15 mph 1016mb 13f
4:18pm 13 15 mph 1015.9mb 13f
4:12pm 11 17 mph 1015.7mb 13f
4:06pm 15 18 mph 1015.7mb 14f
4:00pm 14 16 mph 1015.6mb 14f
3:54pm 13 14 mph 1015.6mb 14f
3:48pm 14 16 mph 1015.5mb 14f
3:42pm 11 14 mph 1015.5mb 14f
3:36pm 11 13 mph 1015.3mb 15f
3:30pm 10 11 mph 1015.4mb 15f
3:24pm 10 13 mph 1015.3mb 15f
3:18pm 9 11 mph 1015.1mb 16f
3:12pm 10 14 mph 1015mb 16f
3:06pm 13 14 mph 1014.9mb 16f
3:00pm 10 14 mph 1014.9mb 16f
2:54pm 11 14 mph 1015mb 16f
2:48pm 14 15 mph 1014.9mb 16f
2:42pm 10 11 mph 1014.8mb 16f
2:36pm 9 16 mph 1014.9mb 19f
2:30pm 14 17 mph 1014.9mb 19f
2:24pm 10 17 mph 1014.9mb 19f
2:18pm 14 17 mph 1014.9mb 19f
2:12pm 15 17 mph 1014.9mb 19f
2:06pm 15 18 mph 1015mb 19f
2:00pm 16 20 mph 1015mb 19f
1:54pm 14 17 mph 1015mb 19f
1:48pm 15 18 mph 1015mb 19f
1:42pm 13 18 mph 1015mb 19f
1:36pm 11 14 mph 1014.9mb 19f
1:30pm 11 15 mph 1014.8mb 18f
1:24pm 6 9 mph 1014.8mb 16f
1:18pm 7 8 mph 1014.8mb 15f
1:12pm 6 8 mph 1014.9mb 14f
1:06pm 5 7 mph 1015mb 13f
1:00pm 6 7 mph 1015.1mb 13f
12:54pm 6 7 mph 1015.1mb 13f
12:48pm 6 8 mph 1015.1mb 12f
12:42pm 6 8 mph 1015.2mb 12f
12:36pm 8 9 mph 1015.3mb 11f
12:30pm 8 9 mph 1015.4mb 11f
12:24pm 9 11 mph 1015.4mb 11f
12:18pm 10 13 mph 1015.4mb 10f
12:12pm 11 13 mph 1015.6mb 10f
12:06pm 10 13 mph 1015.7mb 10f
12:00pm 11 14 mph 1015.8mb 10f
11:54am 11 14 mph 1015.8mb 9f
11:48am 11 14 mph 1015.9mb 9f
11:42am 13 14 mph 1016mb 9f
11:36am 13 15 mph 1015.9mb 9f
11:30am 13 14 mph 1016mb 9f
11:24am 13 14 mph 1016mb 8f
11:18am 11 13 mph 1016mb 8f
11:12am 11 14 mph 1016mb 8f
11:06am 13 14 mph 1016.1mb 8f
11:00am 13 14 mph 1016.1mb 8f
10:54am 13 14 mph 1016.2mb 8f
10:48am 13 14 mph 1016.2mb 8f
10:42am 13 14 mph 1016.3mb 8f
10:36am 11 13 mph 1016.3mb 8f
10:30am 11 13 mph 1016.3mb 8f
10:24am 10 11 mph 1016.3mb 8f
10:18am 10 11 mph 1016.3mb 7f
10:12am 10 11 mph 1016.4mb 7f
10:06am 10 11 mph 1016.4mb 7f
10:00am 11 13 mph 1016.4mb 7f
9:54am 11 13 mph 1016.4mb 7f
9:48am 11 13 mph 1016.3mb 6f
9:42am 11 13 mph 1016.2mb 6f
9:36am 11 13 mph 1016.2mb 6f
9:30am 10 11 mph 1016.2mb 6f
9:24am 10 11 mph 1016.1mb 6f
9:18am 10 13 mph 1016.1mb 6f
9:12am 13 14 mph 1016.2mb 5f
9:06am 11 13 mph 1016.2mb 5f
9:00am 10 13 mph 1016.1mb 5f
8:54am 11 14 mph 1016.2mb 5f
8:48am 11 14 mph 1016.3mb 5f
8:42am 11 14 mph 1016.2mb 4f
8:36am 13 14 mph 1016.3mb 4f
8:30am 13 14 mph 1016.3mb 4f
8:24am 13 14 mph 1016.3mb 4f
8:18am 11 14 mph 1016.3mb 4f
8:12am 11 13 mph 1016.3mb 4f
8:06am 11 13 mph 1016.4mb 3f
8:00am 11 13 mph 1016.4mb 4f
7:54am 11 13 mph 1016.4mb 4f
7:48am 11 13 mph 1016.3mb 4f
7:42am 10 11 mph 1016.4mb 4f
7:36am 9 10 mph 1016.4mb 4f
7:30am 9 10 mph 1016.3mb 3f
7:24am 8 9 mph 1016.2mb 3f
7:18am 9 10 mph 1016.2mb 3f
7:12am 9 10 mph 1016.2mb 3f
7:06am 9 10 mph 1016.2mb 4f
7:00am 9 10 mph 1016.3mb 4f
6:54am 9 10 mph 1016.3mb 4f
6:48am 9 10 mph 1016.4mb 4f
6:42am 8 10 mph 1016.4mb 4f
6:36am 9 10 mph 1016.5mb 4f
6:30am 9 10 mph 1016.5mb 3f
6:24am 9 10 mph 1016.5mb 4f
6:18am 9 10 mph 1016.5mb 4f
6:12am 8 10 mph 1016.6mb 3f
6:06am 8 10 mph 1016.5mb 4f
6:00am 8 10 mph 1016.6mb 4f
5:54am 8 10 mph 1016.6mb 4f
5:48am 8 10 mph 1016.6mb 3f
5:42am 8 10 mph 1016.6mb 3f
5:36am 9 11 mph 1016.6mb 4f
5:30am 10 11 mph 1016.6mb 3f
5:24am 9 10 mph 1016.7mb 4f
5:18am 8 10 mph 1016.6mb 3f
5:12am 8 10 mph 1016.5mb 3f
5:06am 7 9 mph 1016.4mb 3f
5:00am 8 9 mph 1016.4mb 3f
4:54am 8 9 mph 1016.5mb 3f
4:48am 8 9 mph 1016.5mb 4f
4:42am 8 9 mph 1016.5mb 4f
4:36am 7 8 mph 1016.5mb 4f
4:30am 7 8 mph 1016.6mb 4f
4:24am 7 8 mph 1016.6mb 4f
4:18am 7 10 mph 1016.6mb 4f
4:12am 9 10 mph 1016.7mb 4f
4:06am 9 11 mph 1016.8mb 4f
4:00am 9 10 mph - -
3:54am 7 9 mph 1016.9mb 5f
3:48am 7 9 mph 1016.9mb 4f
3:42am 6 7 mph 1016.8mb 4f
3:36am 6 8 mph 1016.8mb 3f
3:30am 6 7 mph 1016.8mb 3f
3:24am 6 8 mph 1016.8mb 3f
3:18am 3 7 mph 1016.8mb 4f
3:12am 5 8 mph 1016.9mb 4f
3:06am 6 10 mph 1016.9mb 4f
3:00am 6 9 mph 1017.1mb 5f
2:54am 8 10 mph 1017.1mb 5f
2:48am 7 10 mph 1017.3mb 4f
2:42am 6 9 mph 1017.3mb 4f
2:36am 6 8 mph 1017.3mb 4f
2:30am 7 9 mph 1017.4mb 4f
2:24am 7 9 mph 1017.3mb 4f
2:18am 8 9 mph 1017.4mb 4f
2:12am 8 10 mph 1017.5mb 3f
2:06am 7 9 mph 1017.6mb 3f
2:00am 6 8 mph 1017.6mb 3f
1:54am 7 9 mph 1017.6mb 3f
1:48am 8 9 mph 1017.5mb 3f
1:42am 8 9 mph 1017.7mb 2f
1:36am 8 9 mph 1017.8mb 2f
1:30am 7 9 mph 1017.9mb 2f
1:24am 7 10 mph 1017.9mb 1f
1:18am 8 10 mph 1017.9mb 1f
1:12am 8 10 mph 1018mb 2f
1:06am 8 10 mph 1017.9mb 1f
1:00am 9 10 mph 1017.9mb -
12:54am 8 9 mph 1017.8mb -
12:48am 7 8 mph 1017.7mb -
12:42am 8 9 mph 1017.6mb 1f
12:36am 7 9 mph 1017.7mb 1f
12:30am 7 8 mph 1017.8mb -
12:24am 8 9 mph 1017.7mb -
12:18am 8 9 mph 1017.7mb -
12:12am 8 9 mph 1017.6mb 1f
12:06am 7 8 mph 1017.7mb 1f
12:00am 7
mph
1017.8mb 1f
Sun 01/25 11:54pm 7 8 mph 1017.8mb 2f
11:48pm 6 7 mph 1017.9mb 2f
11:42pm 6 7 mph 1018mb 2f
11:36pm 6 7 mph 1018mb 2f
11:30pm 6 7 mph 1018mb 3f
11:24pm 5 6 mph 1018.1mb 2f
11:18pm 6 7 mph 1018.1mb 3f
11:12pm 6
mph
1018.2mb 3f
11:06pm 5 6 mph 1018.3mb 3f
11:00pm 3 5 mph 1018.2mb 4f
10:54pm 3 5 mph 1018.3mb 4f
10:48pm 3 5 mph 1018.3mb 4f
10:42pm 5
mph
1018.4mb 4f
10:36pm 5
mph
1018.5mb 3f
10:30pm 3 6 mph 1018.5mb 4f
10:24pm 3 5 mph 1018.4mb 4f
10:18pm 3 5 mph 1018.6mb 4f
10:12pm 3 5 mph 1018.8mb 4f
10:06pm 3 5 mph 1018.9mb 4f
10:00pm 5
mph
1019mb 4f
9:54pm 5
mph
1019.1mb 4f
9:48pm 5
mph
1019.2mb -
9:42pm 5 6 mph 1019.2mb 4f
9:36pm 5 6 mph 1019.3mb 4f
9:30pm 5 6 mph 1019.3mb 4f
9:24pm 5 6 mph 1019.3mb 4f
9:18pm 5 6 mph 1019.3mb 4f
9:12pm 5 7 mph 1019.3mb 4f
9:06pm 6 7 mph 1019.5mb 5f
9:00pm 6 7 mph 1019.5mb 5f
8:54pm 5 6 mph 1019.6mb 4f
8:48pm 6
mph
1019.6mb 4f
8:42pm 5 6 mph 1019.6mb 4f
8:36pm 3 5 mph 1019.5mb 4f
8:30pm 3 5 mph 1019.5mb 5f
8:24pm 3 5 mph 1019.6mb 5f
8:18pm 5 6 mph 1019.7mb 4f
8:12pm 5
mph
1019.6mb 4f
8:06pm 5 6 mph 1019.6mb 5f
8:00pm 5 6 mph 1019.5mb 4f
7:54pm 5 6 mph 1019.5mb 4f
7:48pm 5 6 mph 1019.5mb 5f
7:42pm 5 6 mph 1019.4mb 5f
7:36pm 6
mph
1019.4mb 5f
7:30pm 6 7 mph 1019.4mb 5f
7:24pm 5 6 mph 1019.3mb 5f
7:18pm 5 7 mph 1019.2mb 6f
7:12pm 6 7 mph 1019.1mb 6f
7:06pm 7 8 mph 1019.1mb 6f
7:00pm 6 8 mph 1019.1mb 6f
6:54pm 7 8 mph 1019.2mb 7f
6:48pm 6 7 mph 1019.2mb 7f
6:42pm 5 6 mph 1019.2mb 7f
6:36pm 5 6 mph 1019.1mb 7f
6:30pm 6
mph
1019.1mb 7f
6:24pm 5 6 mph 1019.1mb 7f
6:18pm 5 6 mph 1019mb 7f
6:12pm 6
mph
1019mb 8f
6:06pm 5 6 mph 1019mb 8f
6:00pm 3 5 mph 1018.9mb 8f
5:54pm 3 6 mph 1018.9mb 8f
5:48pm 3 6 mph 1019mb 8f
5:42pm 3 6 mph 1018.9mb 8f
5:36pm 5 6 mph 1018.8mb 8f
5:30pm 6
mph
1018.8mb 7f
5:24pm 3 5 mph 1018.7mb 9f
5:18pm 1 2 mph 1018.7mb 8f
5:12pm 1 3 mph 1018.6mb 8f
5:06pm 3 5 mph 1018.5mb 8f
5:00pm 5
mph
1018.5mb 9f
4:54pm 1 2 mph 1018.5mb 9f
4:48pm 1 2 mph 1018.5mb 9f
4:42pm 3
mph
1018.5mb 9f
4:36pm 2 3 mph 1018.4mb 9f
4:30pm 3 6 mph 1018.3mb 9f
4:24pm 5
mph
1018.3mb 10f
4:18pm 2
mph
1018.2mb 10f
4:12pm 2 3 mph 1018.2mb 10f
4:06pm 3 7 mph 1018.3mb 10f
4:00pm 6 8 mph 1018.1mb 11f
3:54pm 7 8 mph 1018mb 11f
3:48pm 6 8 mph 1018mb 11f
3:42pm 6
mph
1018mb 11f
3:36pm 5 7 mph 1018mb 11f
3:30pm 5 7 mph 1018.1mb 11f
3:24pm 5 6 mph 1018.1mb 11f
3:18pm 3 7 mph 1018.2mb 11f
3:12pm 6 7 mph 1018.2mb 11f
3:06pm 5 6 mph 1018.2mb 11f
3:00pm 3 5 mph 1018.3mb 11f
2:54pm 3 5 mph 1018.3mb 11f
2:48pm 3 6 mph 1018.2mb 11f
2:42pm 2 5 mph 1018.2mb 11f
2:36pm 5 6 mph 1018.1mb 10f
2:30pm 5 6 mph 1018.2mb 10f
2:24pm 3
mph
1018.3mb 11f
2:18pm 3
mph
1018.4mb 11f
2:12pm 2 3 mph 1018.4mb 10f
2:06pm 1 3 mph 1018.3mb 10f
2:00pm 3 5 mph 1018.3mb 10f
1:54pm 3 5 mph 1018.2mb 9f
1:48pm 3 5 mph 1018.2mb 9f
1:42pm 3 5 mph 1018.2mb 9f
1:36pm 3 5 mph 1018.2mb 9f
1:30pm 3 5 mph 1018.3mb 8f
1:24pm 3 6 mph 1018.2mb 9f
1:18pm 6 8 mph 1018.2mb 9f
1:12pm 6 7 mph 1018.2mb 9f
1:06pm 6 7 mph 1018.3mb 9f
1:00pm 5 7 mph 1018.2mb 9f
12:54pm 3 6 mph 1018.2mb 8f
12:48pm 5 6 mph 1018.2mb 8f
12:42pm 3 5 mph 1018.2mb 8f
12:36pm 3 6 mph 1018.1mb 8f
12:30pm 3 6 mph 1018mb 7f
12:24pm 3 5 mph 1018mb 7f
12:18pm 3 6 mph 1018mb 7f
12:12pm 2 6 mph 1017.9mb 7f
12:06pm 5 7 mph 1017.8mb 6f
12:00pm 3 5 mph 1017.8mb 6f
11:54am 3 7 mph 1017.7mb 5f
11:48am 6 8 mph 1017.6mb 5f
11:42am 5 9 mph 1017.6mb 5f
11:36am 8 10 mph 1017.4mb 5f
11:30am 7 9 mph 1017.5mb 5f
11:24am 7 9 mph 1017.4mb 4f
11:18am 6 9 mph 1017.3mb 4f
11:12am 6 9 mph 1017.4mb 4f
11:06am 8 10 mph 1017.3mb 4f
11:00am 8 11 mph 1017.2mb 4f
10:54am 8 10 mph 1017.2mb 4f
10:48am 8 11 mph 1017.2mb 3f
10:42am 8 11 mph 1017.1mb 3f
10:36am 10 11 mph 1017mb 3f
10:30am 9 11 mph 1017.1mb 3f
10:24am 9 11 mph 1017.1mb 3f
10:18am 9 13 mph 1017mb 3f
10:12am 10 13 mph 1017.1mb 3f
10:06am 11 14 mph 1016.9mb 2f
10:00am 11 15 mph 1016.9mb 3f
9:54am 15 16 mph 1016.7mb 2f
9:48am 11 15 mph 1016.7mb 2f
9:42am 13 16 mph 1016.6mb 2f
9:36am 14 15 mph 1016.5mb 2f
9:30am 13 14 mph 1016.6mb 2f
9:24am 13 15 mph 1016.5mb 2f
9:18am 13 15 mph 1016.3mb 2f
9:12am 11 14 mph 1016.3mb 1f
9:06am 11 14 mph 1016.3mb 1f
8:54am 9 11 mph 1016.4mb 2f
8:48am 9 13 mph 1016.3mb 2f
8:42am 9 11 mph 1016.3mb 1f
8:36am 8 11 mph 1016.3mb 1f
8:30am 9 11 mph 1016.3mb -
8:24am 9 10 mph 1016.2mb -
8:18am 7 9 mph 1016.2mb -
8:12am 7 9 mph 1016.1mb -
8:06am 8 10 mph 1016mb -
8:00am 8 9 mph 1016mb -
7:54am 7 8 mph 1016mb -
7:48am 7 8 mph 1015.9mb -
7:42am 7 9 mph 1015.8mb -
7:36am 8 10 mph 1015.7mb -
7:30am 8 10 mph 1015.6mb -
7:24am 9 11 mph 1015.5mb -
7:18am 9 10 mph 1015.4mb -
7:12am 9 10 mph 1015.4mb -1f
7:06am 8 10 mph 1015.3mb -
7:00am 8 11 mph 1015.2mb -1f
6:54am 8 10 mph 1015.1mb -1f
6:48am 7 11 mph 1015mb -1f
6:42am 7 10 mph 1015mb -1f
6:36am 8 13 mph 1014.8mb -1f
6:30am 9 13 mph 1014.8mb -
6:24am 10 13 mph 1014.7mb -
6:18am 10 14 mph 1014.7mb -
6:12am 10 15 mph 1014.6mb 1f
6:06am 11 14 mph 1014.6mb 1f
6:00am 10 14 mph 1014.6mb -
5:54am 10 14 mph 1014.5mb -
5:48am 9 13 mph 1014.5mb -
5:42am 10 14 mph 1014.5mb -
5:36am 9 13 mph 1014.4mb -1f
5:30am 8 13 mph 1014.3mb -1f
5:24am 8 13 mph 1014.3mb -
5:18am 8 11 mph 1014.1mb -1f
5:12am 7 10 mph 1014mb -
5:06am 8 13 mph 1013.9mb -
5:00am 10 15 mph 1013.8mb -
4:54am 10 14 mph 1013.7mb -
4:48am 10 16 mph 1013.6mb -
4:42am 10 16 mph 1013.6mb -
4:36am 10 14 mph 1013.6mb -
4:30am 10 14 mph 1013.7mb 1f
4:24am 8 13 mph 1013.6mb 1f
4:18am 8 15 mph 1013.5mb 1f
4:12am 9 13 mph 1013.4mb 1f
4:06am 7 10 mph 1013.3mb 1f
4:00am 7 11 mph 1013.2mb 1f
3:54am 7 11 mph 1013.2mb 1f
3:48am 6 10 mph 1013.1mb 1f
3:42am 7 11 mph 1012.9mb 2f
3:36am 7 11 mph 1012.8mb 2f
3:30am 8 11 mph 1012.7mb 2f
3:24am 7 11 mph 1012.7mb 2f
3:18am 6 9 mph 1012.6mb 2f
3:12am 6 9 mph 1012.5mb 2f
3:06am 5 9 mph 1012.5mb 2f
3:00am 3 6 mph 1012.4mb 2f
2:54am 5 7 mph 1012.3mb 2f
2:48am 5 7 mph 1012.2mb 3f
2:42am 5 8 mph 1012.1mb 3f
2:36am 6 9 mph 1012mb 3f
2:30am 6 9 mph 1012mb 3f
2:24am 6 9 mph 1011.9mb 4f
2:18am 6 9 mph 1011.7mb 4f
2:12am 5 7 mph 1011.6mb 4f
2:06am 5 8 mph 1011.5mb 4f
2:00am 6 9 mph 1011.4mb 4f
1:54am 7 9 mph 1011.3mb 4f
1:48am 6 8 mph 1011.2mb 5f
1:42am 2 7 mph 1011.1mb 5f
1:36am 5 7 mph 1010.9mb 6f
1:30am 3 7 mph 1010.7mb 6f
1:24am 6 11 mph 1010.5mb 6f
1:18am 10 14 mph 1010.3mb 8f
1:12am 13 14 mph 1010.1mb 9f
1:06am 10 13 mph 1010mb 8f
1:00am 10 14 mph 1009.9mb 7f
12:54am 11 14 mph 1009.8mb 8f
12:48am 11 14 mph 1009.7mb -
12:42am 10 14 mph 1009.5mb -
12:36am 9 11 mph 1009.4mb -
12:30am 8 10 mph 1009.2mb 8f
12:24am 10 11 mph 1009mb 10f
12:18am 10 13 mph 1008.8mb 10f
12:12am 13 15 mph 1008.7mb 10f
12:06am 13 15 mph 1008.5mb 10f
12:00am 11 14 mph 1008.5mb 10f
Sat 01/24 11:54pm 9 13 mph 1008.4mb 9f
11:48pm 8 11 mph 1008.2mb 9f
11:42pm 7 8 mph 1008.1mb 9f
11:36pm 8 11 mph 1008mb 10f
11:30pm 10 13 mph 1008mb 11f
11:24pm 9 11 mph 1007.9mb 11f
11:18pm 9 10 mph 1007.8mb 11f
11:12pm 9 11 mph 1007.7mb 11f
11:06pm 10 14 mph 1007.5mb 12f
11:00pm 10 14 mph 1007.4mb 12f
10:54pm 7 9 mph 1007.4mb 11f
10:48pm 8 9 mph 1007.3mb 12f
10:42pm 8
mph
1007.2mb 13f
10:36pm 8 10 mph 1007mb 12f
10:30pm 9 11 mph 1007mb 12f
10:24pm 10 11 mph 1006.9mb 13f
10:18pm 10 13 mph 1006.9mb 13f
10:12pm 10 13 mph 1006.9mb 13f
10:06pm 10 13 mph 1006.8mb 13f
10:00pm 11 14 mph 1006.7mb 13f
9:54pm 11 13 mph 1006.6mb 13f
9:48pm 11 13 mph 1006.6mb 13f
9:42pm 10 14 mph 1006.5mb 13f
9:36pm 10 14 mph 1006.4mb 14f
9:30pm 13 14 mph 1006.4mb 14f
9:24pm 13 14 mph 1006.3mb 14f
9:18pm 13 14 mph 1006.3mb 14f
9:12pm 11 14 mph 1006.3mb 15f
9:06pm 9 11 mph 1006.3mb 15f
9:00pm 10 11 mph 1006.1mb 15f
8:54pm 11 13 mph 1006mb 15f
8:48pm 10 14 mph 1006mb 15f
8:42pm 13 14 mph 1005.8mb 16f
8:36pm 11 14 mph 1005.7mb 16f
8:30pm 11 13 mph 1005.6mb 16f
8:24pm 14 16 mph 1005.6mb 16f
8:18pm 14 17 mph 1005.4mb 17f
8:12pm 14 16 mph 1005.3mb 17f
8:06pm 13 15 mph 1005.2mb 17f
8:00pm 11 15 mph 1005.2mb 17f
7:54pm 13 15 mph 1005.2mb 17f
7:48pm 13 16 mph 1005mb 17f
7:42pm 14 17 mph 1005mb 18f
7:36pm 14 17 mph 1005mb 18f
7:30pm 15 18 mph 1004.9mb 18f
7:24pm 14 18 mph 1004.8mb 18f
7:18pm 16 17 mph 1004.5mb 19f
7:12pm 15 18 mph 1004.4mb 19f
7:06pm 15 21 mph 1004.3mb 19f
7:00pm 18 22 mph 1004.2mb 20f
6:54pm 16 21 mph 1003.9mb 20f
6:48pm 20 23 mph 1003.8mb 20f
6:42pm 15 21 mph 1003.6mb 21f
6:36pm 15 20 mph 1003.5mb 21f
6:30pm 10 15 mph 1003.4mb 21f
6:24pm 9 15 mph 1003.2mb 22f
6:18pm 9 16 mph 1003.1mb 22f
6:12pm 11 16 mph 1003mb 22f
6:06pm 10 20 mph 1003mb 21f
6:00pm 13 17 mph 1002.8mb 22f
5:54pm 11 20 mph 1002.6mb 22f
5:48pm 10 20 mph 1002.4mb 22f
5:42pm 11 18 mph 1002.2mb 22f
5:36pm 11 22 mph 1002mb 22f
5:30pm 9 21 mph 1001.8mb 22f
5:24pm 10 21 mph 1001.8mb 22f
5:18pm 11 20 mph 1001.6mb 22f
5:12pm 10 17 mph 1001.5mb 22f
5:06pm 9 17 mph 1001.2mb 22f
5:00pm 10 18 mph 1001.2mb 23f
4:54pm 11 20 mph 1001mb 23f
4:48pm 11 20 mph 1000.8mb 23f
4:42pm 11 20 mph 1000.6mb 23f
4:36pm 10 18 mph 1000.4mb 23f
4:30pm 11 24 mph 1000.2mb 24f
4:24pm 10 26 mph 1000.1mb 24f
4:18pm 13 23 mph 1000mb 24f
4:12pm 14 26 mph 1000mb 25f
4:06pm 15 26 mph 999.8mb 25f
4:00pm 16 24 mph 999.6mb 26f
3:54pm 13 23 mph 999.6mb 26f
3:48pm 15 24 mph 999.5mb 26f
3:42pm 13 24 mph 999.3mb 27f
3:36pm 13 22 mph 999.2mb 27f
3:30pm 9 17 mph 999.1mb 27f
3:24pm 13 24 mph 999mb 28f
3:18pm 13 22 mph 998.8mb 28f
3:12pm 11 23 mph 998.8mb 28f
3:06pm 9 21 mph 998.8mb 28f
3:00pm 11 24 mph 998.7mb 28f
2:54pm 15 23 mph 998.7mb 28f
2:48pm 13 24 mph 998.6mb 28f
2:42pm 14 23 mph 998.4mb 29f
2:36pm 11 21 mph 998.3mb 29f
2:30pm 11 22 mph 998.2mb 29f
2:24pm 8 26 mph 998.1mb 29f
2:18pm 14 23 mph 998mb 30f
2:12pm 17 26 mph 998mb 30f
2:06pm 11 28 mph 997.8mb 31f
2:00pm 8 22 mph 997.8mb 31f
1:54pm 14 25 mph 997.7mb 30f
1:48pm 15 25 mph 997.7mb 30f
1:42pm 16 30 mph 997.7mb 30f
1:36pm 16 26 mph 997.7mb 30f
1:30pm 15 29 mph 997.6mb 31f
1:24pm 11 25 mph 997.5mb 31f
1:18pm 14 26 mph 997.4mb 32f
1:12pm 15 23 mph 997.4mb 32f
1:06pm 11 26 mph 997.4mb 32f
1:00pm 15 24 mph 997.3mb 32f
12:54pm 14 28 mph 997.4mb 32f
12:48pm 10 24 mph 997.5mb 33f
12:42pm 13 18 mph 997.5mb 33f
12:36pm 9 18 mph 997.4mb 32f
12:30pm 10 17 mph 997.4mb 33f
12:24pm 10 18 mph 997.5mb 33f
12:18pm 11 15 mph 997.5mb 33f
12:12pm 9 15 mph 997.5mb 33f
12:06pm 9 23 mph 997.5mb 32f
12:00pm 11 20 mph 997.6mb 31f
11:54am 11 21 mph 997.6mb 32f
11:48am 6 9 mph 997.5mb 35f
11:42am 6 15 mph 997.3mb 35f
11:36am 9 14 mph 997.4mb 35f
11:30am 8 13 mph 997.4mb 35f
11:24am 6 10 mph 997.5mb 35f
11:18am 5 13 mph 997.6mb 35f
11:12am 6 13 mph 997.7mb 35f
11:06am 6 11 mph 997.8mb 35f
11:00am 6 9 mph 997.8mb 35f
10:54am 3 7 mph 997.8mb 35f
10:48am 3 8 mph 997.8mb 34f
10:42am 6 10 mph 997.8mb 34f
10:36am 6 9 mph 998mb 34f
10:30am 6 8 mph 998mb 33f
10:24am 6 9 mph 998.2mb 33f